WetterOnline ( https://www.wetteronline.ch )

Wetter aktuell Finsterwalde

Aktuelles Wetter: Kirchhain (100m)

6-stündlich | Neueste Meldungen
Ortszeit Temperatur Wetter
Di, 18.02. 19:00 5.9° C bewölkt
Di, 18.02. 13:00 8.6° C bewölkt
Di, 18.02. 7:00 7.4° C bewölkt
Di, 18.02. 1:00 7.3° C fast wolkenlos
Mo, 17.02. 19:00 9.0° C bedeckt
Mo, 17.02. 13:00 10.3° C bewölkt
Mo, 17.02. 7:00 10.1° C bedeckt
Mo, 17.02. 1:00 16.2° C bewölkt
Ortszeit Temperatur Wetter
Di, 18.02. 21:00 5.3° C wolkig
Di, 18.02. 20:30 5.3° C bewölkt
Di, 18.02. 20:20 5.3° C bewölkt
Di, 18.02. 20:10 5.3° C bewölkt
Di, 18.02. 20:00 5.4° C wolkig
Di, 18.02. 19:50 5.4° C wolkig
Di, 18.02. 19:30 6.3° C leichter Regen
Di, 18.02. 19:00 5.9° C bewölkt
Ortszeit Relative Feuchte Sichtweite
Di, 18.02. 19:00 73% 70 km
Di, 18.02. 13:00 60% 70 km
Di, 18.02. 7:00 72% 70 km
Di, 18.02. 1:00 69% 70 km
Mo, 17.02. 19:00 66% 70 km
Mo, 17.02. 13:00 54% 70 km
Mo, 17.02. 7:00 69% 70 km
Mo, 17.02. 1:00 38% 70 km
Ortszeit Relative Feuchte Sichtweite
Di, 18.02. 21:00 76% 70 km
Di, 18.02. 20:30 78% 70 km
Di, 18.02. 20:20 78% -
Di, 18.02. 20:10 78% -
Di, 18.02. 20:00 78% 70 km
Di, 18.02. 19:50 78% -
Di, 18.02. 19:30 72% 27 km
Di, 18.02. 19:00 73% 70 km
Ortszeit Niederschlagsmenge Niederschlagsart
Di, 18.02. 19:00 0.1 l/m2 in 12 Std. Regen
Di, 18.02. 13:00 0.1 l/m2 in 6 Std. Regen
Di, 18.02. 7:00 0.6 l/m2 in 12 Std. Regen
Di, 18.02. 1:00 0.6 l/m2 in 6 Std. Regen
Mo, 17.02. 19:00 0.0 l/m2 in 12 Std. -
Mo, 17.02. 13:00 0.0 l/m2 in 6 Std. -
Mo, 17.02. 7:00 0.1 l/m2 in 12 Std. Regen
Mo, 17.02. 1:00 0.0 l/m2 in 6 Std. -
Ortszeit Niederschlagsmenge Niederschlagsart
Di, 18.02. 21:00 0.0 l/m2 in 1 Std. -
Di, 18.02. 20:30 0.0 l/m2 in 1 Std. -
Di, 18.02. 20:20 keine Meldung -
Di, 18.02. 20:10 keine Meldung -
Di, 18.02. 20:00 0.1 l/m2 in 1 Std. Regen
Di, 18.02. 19:50 keine Meldung -
Di, 18.02. 19:30 0.1 l/m2 in 1 Std. -
Di, 18.02. 19:00 0.0 l/m2 in 1 Std. Regen
Ortszeit Stärke Spitze Richtung
km/h Bft. km/h Grad Sektor
Di, 18.02. 19:00 11 2 58 210° SW
Di, 18.02. 13:00 22 4 61 270° W
Di, 18.02. 7:00 25 4 47 250° W
Di, 18.02. 1:00 18 3 40 240° SW
Mo, 17.02. 19:00 22 4 41 220° SW
Mo, 17.02. 13:00 15 3 46 230° SW
Mo, 17.02. 7:00 25 4 58 240° SW
Mo, 17.02. 1:00 26 4 56 210° SW
Ortszeit Stärke Spitze Richtung
km/h Bft. km/h Grad Sektor
Di, 18.02. 21:00 17 3 31 220° SW
Di, 18.02. 20:30 17 3 28 230° SW
Di, 18.02. 20:20 17 3 - 230° SW
Di, 18.02. 20:10 18 3 - 230° SW
Di, 18.02. 20:00 18 3 43 230° SW
Di, 18.02. 19:50 18 3 - 230° SW
Di, 18.02. 19:30 26 4 44 230° SW
Di, 18.02. 19:00 11 2 25 210° SW
Ortszeit Untergrenze Bedeckung Gattung
total tief tief mittel hoch
Di, 18.02. 19:00 1500 m 7/8 7/8 - - -
Di, 18.02. 13:00 1290 m 7/8 7/8 - - -
Di, 18.02. 7:00 900 m 8/8 7/8 - - -
Di, 18.02. 1:00 1470 m 0/8 0/8 - - -
Mo, 17.02. 19:00 4200 m 8/8 8/8 - - -
Mo, 17.02. 13:00 2100 m 8/8 7/8 - - -
Mo, 17.02. 7:00 3600 m 8/8 8/8 - - -
Mo, 17.02. 1:00 1800 m 8/8 5/8 - - -
Ortszeit Bedeckungsgrad in Achtel und Wolkenuntergrenze
Di, 18.02. 21:00 3(1800m) 8(6000m) 8(6600m)
Di, 18.02. 20:30 6(1800m) 8(5400m)
Di, 18.02. 20:20 6(1800m) 8(5400m)
Di, 18.02. 20:10 5(1800m) 6(3300m) 8(5700m)
Di, 18.02. 20:00 3(1080m) 7(3300m) 7(5400m)
Di, 18.02. 19:50 3(1080m) 7(3300m) 7(5400m)
Di, 18.02. 19:30 3(900m) 7(1170m) 7(1500m)
Di, 18.02. 19:00 6(1500m) 7(2100m) 7(4800m)
Ortszeit Luftdruck NN (hPa) Tendenz (hPa in 3 Std.)
Di, 18.02. 19:00 1021 + 0,4
Di, 18.02. 13:00 1021 + 1,0
Di, 18.02. 7:00 1018 + 1,4
Di, 18.02. 1:00 1017 + 1,0
Mo, 17.02. 19:00 1015 + 0,9
Mo, 17.02. 13:00 1015 - 0,2
Mo, 17.02. 7:00 1013 + 1,8
Mo, 17.02. 1:00 1006 + 1,2
Ortszeit Luftdruck NN (hPa) Tendenz (hPa in 3 Std.)
Di, 18.02. 21:00 1021 - 0,1
Di, 18.02. 20:30 1021 + 0,1
Di, 18.02. 20:20 1021 keine Meldung
Di, 18.02. 20:10 1021 keine Meldung
Di, 18.02. 20:00 1021 + 0,5
Di, 18.02. 19:50 1021 keine Meldung
Di, 18.02. 19:30 1021 + 0,5
Di, 18.02. 19:00 1021 + 0,4
Ortszeit Schneehöhe (cm)
Di, 18.02. 19:00 0
Di, 18.02. 13:00 0
Di, 18.02. 7:00 0
Di, 18.02. 1:00 0
Mo, 17.02. 19:00 0
Mo, 17.02. 13:00 0
Mo, 17.02. 7:00 0
Mo, 17.02. 1:00 0
Ortszeit Schneehöhe (cm)
Di, 18.02. 21:00 0
Di, 18.02. 20:30 0
Di, 18.02. 20:20 0
Di, 18.02. 20:10 0
Di, 18.02. 20:00 0
Di, 18.02. 19:50 0
Di, 18.02. 19:30 0
Di, 18.02. 19:00 0
Link zu dieser Seite / Seite empfehlen

Das Wetter in ...